Time;durP1;ratioP1;P1;durP2;ratioP2;P2;SDS_P1;SDS_P2;PMS_P1;PMS_P2;Temp;Humidity;BMP_temperature;BMP_pressure;BME280_temperature;BME280_humidity;BME280_pressure;Samples;Min_cycle;Max_cycle;Signal;HPM_P1;HPM_P2
2022/10/14 00:01:00;;;;;;;50.53;35.08;;;13.20;99.90;;;;;;5065159;28;20505;-55
2022/10/14 00:03:26;;;;;;;46.13;34.60;;;13.20;99.90;;;;;;5051727;28;20033;-57
2022/10/14 00:05:51;;;;;;;45.20;33.33;;;13.20;99.90;;;;;;5053778;28;20036;-57
2022/10/14 00:08:17;;;;;;;48.20;35.43;;;13.20;99.90;;;;;;5066590;28;20325;-57
2022/10/14 00:10:42;;;;;;;54.00;35.20;;;13.20;99.90;;;;;;5068375;28;20633;-56
2022/10/14 00:13:08;;;;;;;43.13;32.38;;;13.20;99.90;;;;;;5049565;28;20508;-55
2022/10/14 00:15:38;;;;;;;43.43;34.03;;;13.20;99.90;;;;;;5053600;28;20037;-56
2022/10/14 00:18:05;;;;;;;47.55;33.42;;;13.20;99.90;;;;;;5069635;28;20037;-57
2022/10/14 00:20:31;;;;;;;44.70;33.17;;;13.10;99.90;;;;;;5050871;28;20119;-54
2022/10/14 00:22:56;;;;;;;52.10;35.78;;;13.20;99.90;;;;;;5056784;28;20048;-57
2022/10/14 00:25:22;;;;;;;49.77;34.40;;;13.10;99.90;;;;;;5062745;28;20102;-56
2022/10/14 00:27:47;;;;;;;45.92;34.78;;;13.10;99.90;;;;;;5066711;28;20788;-56
2022/10/14 00:30:13;;;;;;;44.25;33.30;;;13.10;99.90;;;;;;5059344;28;20049;-57
2022/10/14 00:32:38;;;;;;;46.45;33.90;;;13.10;99.90;;;;;;5069985;28;20041;-58
2022/10/14 00:35:04;;;;;;;49.67;35.37;;;13.10;99.90;;;;;;5050591;28;20087;-56
2022/10/14 00:37:30;;;;;;;55.22;37.63;;;13.10;99.90;;;;;;5059557;28;20037;-57
2022/10/14 00:39:55;;;;;;;55.83;39.23;;;13.00;99.90;;;;;;5049263;28;20037;-54
2022/10/14 00:42:21;;;;;;;52.78;37.00;;;13.00;99.90;;;;;;5071189;28;20131;-57
2022/10/14 00:44:50;;;;;;;52.07;35.90;;;13.00;99.90;;;;;;5081020;28;20182;-56
2022/10/14 00:47:15;;;;;;;52.08;36.83;;;13.00;99.90;;;;;;5055096;28;20288;-55
2022/10/14 00:49:42;;;;;;;56.22;37.70;;;13.00;99.90;;;;;;5062422;28;20192;-55
2022/10/14 00:52:15;;;;;;;46.33;33.90;;;12.90;99.90;;;;;;5062341;28;20611;-54
2022/10/14 00:54:52;;;;;;;46.75;33.90;;;12.80;99.90;;;;;;5054032;28;20033;-57
2022/10/14 00:57:18;;;;;;;44.65;34.90;;;12.80;99.90;;;;;;5062891;28;20055;-56
2022/10/14 00:59:44;;;;;;;44.03;33.05;;;12.80;99.90;;;;;;5073682;28;20119;-56
2022/10/14 01:02:10;;;;;;;43.83;31.73;;;12.80;99.90;;;;;;5065862;28;20123;-55
2022/10/14 01:04:39;;;;;;;43.50;32.22;;;12.70;99.90;;;;;;5061445;28;20044;-56
2022/10/14 01:07:08;;;;;;;47.58;30.98;;;12.70;99.90;;;;;;5064532;28;20040;-54
2022/10/14 01:09:49;;;;;;;44.85;33.08;;;12.70;99.90;;;;;;5067065;28;20032;-57
2022/10/14 01:12:32;;;;;;;40.75;31.17;;;12.60;99.90;;;;;;5062220;28;20075;-54
2022/10/14 01:15:18;;;;;;;48.08;32.38;;;12.60;99.90;;;;;;5072882;28;20037;-56
2022/10/14 01:17:50;;;;;;;44.50;31.17;;;12.50;99.90;;;;;;5060899;28;20069;-55
2022/10/14 01:20:34;;;;;;;40.15;27.95;;;12.50;99.90;;;;;;5053110;28;20037;-55
2022/10/14 01:23:34;;;;;;;37.83;25.77;;;12.50;99.90;;;;;;5063623;28;20557;-55
2022/10/14 01:26:25;;;;;;;36.13;24.65;;;12.50;99.90;;;;;;5054228;28;20049;-55
2022/10/14 01:29:20;;;;;;;39.85;25.05;;;12.40;99.90;;;;;;5060947;28;20041;-54
2022/10/14 01:31:51;;;;;;;36.08;24.20;;;12.40;99.90;;;;;;5071727;28;20044;-57
2022/10/14 01:34:26;;;;;;;40.78;26.85;;;12.40;99.90;;;;;;5053978;28;20079;-57
2022/10/14 01:36:58;;;;;;;40.58;26.65;;;12.30;99.90;;;;;;5053582;28;20033;-54
2022/10/14 01:39:31;;;;;;;37.40;26.23;;;12.30;99.90;;;;;;5072068;28;20405;-57
2022/10/14 01:42:06;;;;;;;35.97;23.75;;;12.20;99.90;;;;;;5054512;28;20093;-57
2022/10/14 01:44:33;;;;;;;51.95;25.48;;;12.20;99.90;;;;;;5053870;28;20041;-55
2022/10/14 01:47:00;;;;;;;69.13;24.00;;;12.20;99.90;;;;;;5053365;28;20036;-56
2022/10/14 01:49:42;;;;;;;52.10;22.00;;;12.20;99.90;;;;;;5063884;28;20302;-54
2022/10/14 01:52:18;;;;;;;103.72;25.42;;;12.20;99.90;;;;;;5053629;28;20403;-55
2022/10/14 01:54:48;;;;;;;58.27;23.97;;;12.10;99.90;;;;;;5068090;28;20040;-55
2022/10/14 01:57:18;;;;;;;91.53;22.63;;;12.10;99.90;;;;;;5065821;28;20075;-55
2022/10/14 01:59:45;;;;;;;64.50;21.52;;;12.10;99.90;;;;;;5053589;28;20101;-58
2022/10/14 02:02:12;;;;;;;107.43;21.98;;;12.00;99.90;;;;;;5052385;28;20043;-57
2022/10/14 02:04:38;;;;;;;105.50;25.05;;;12.00;99.90;;;;;;5069521;28;20037;-57
2022/10/14 02:07:17;;;;;;;107.90;22.35;;;11.90;99.90;;;;;;5071905;28;20052;-54
2022/10/14 02:10:01;;;;;;;151.57;23.48;;;11.90;99.90;;;;;;5061965;28;20116;-56
2022/10/14 02:12:47;;;;;;;73.93;22.75;;;11.90;99.90;;;;;;5055040;28;20120;-57
2022/10/14 02:15:29;;;;;;;112.68;23.70;;;11.90;99.90;;;;;;5060296;28;20097;-56
2022/10/14 02:18:30;;;;;;;118.05;21.95;;;11.80;99.90;;;;;;5055689;28;20701;-57
2022/10/14 02:21:11;;;;;;;107.35;23.75;;;11.80;99.90;;;;;;5022559;28;20124;-56
2022/10/14 02:23:41;;;;;;;38.13;20.33;;;11.80;99.90;;;;;;5060983;28;20029;-55
2022/10/14 02:26:07;;;;;;;106.20;23.58;;;11.80;99.90;;;;;;5069164;28;20029;-55
2022/10/14 02:28:34;;;;;;;82.63;23.73;;;11.90;99.90;;;;;;5062631;28;20087;-54
2022/10/14 02:31:06;;;;;;;124.82;25.23;;;11.80;99.90;;;;;;5054338;28;20058;-57
2022/10/14 02:33:38;;;;;;;61.50;24.63;;;11.80;99.90;;;;;;5069518;28;20286;-55
2022/10/14 02:36:06;;;;;;;51.72;24.45;;;11.80;99.90;;;;;;5069953;28;20494;-55
2022/10/14 02:38:33;;;;;;;114.20;26.08;;;11.80;99.90;;;;;;5057714;28;20032;-56
2022/10/14 02:41:03;;;;;;;63.20;28.45;;;11.80;99.90;;;;;;5052693;28;20033;-56
2022/10/14 02:43:28;;;;;;;67.00;28.52;;;11.80;99.90;;;;;;5057246;28;20063;-56
2022/10/14 02:46:00;;;;;;;71.73;29.83;;;11.80;99.90;;;;;;5069087;28;20068;-57
2022/10/14 02:48:26;;;;;;;64.75;29.65;;;11.80;99.90;;;;;;5065223;28;20351;-56
2022/10/14 02:50:52;;;;;;;63.67;27.90;;;11.80;99.90;;;;;;5053533;28;20036;-56
2022/10/14 02:53:17;;;;;;;61.67;29.55;;;11.80;99.90;;;;;;5066359;28;20120;-55
2022/10/14 02:55:43;;;;;;;71.75;30.55;;;11.80;99.90;;;;;;5051396;28;20084;-56
2022/10/14 02:58:08;;;;;;;63.60;30.23;;;11.80;99.90;;;;;;5052427;28;20041;-57
2022/10/14 03:00:34;;;;;;;71.03;33.17;;;11.80;99.90;;;;;;5051038;28;20035;-55
2022/10/14 03:03:00;;;;;;;76.38;33.17;;;11.80;99.90;;;;;;5066833;28;20425;-55
2022/10/14 03:05:26;;;;;;;78.75;35.38;;;11.80;99.90;;;;;;5051364;28;20048;-54
2022/10/14 03:07:51;;;;;;;71.28;33.65;;;11.80;99.90;;;;;;5060602;28;20041;-56
2022/10/14 03:10:17;;;;;;;74.40;36.95;;;11.70;99.90;;;;;;5067505;28;20047;-57
2022/10/14 03:12:43;;;;;;;79.75;39.30;;;11.70;99.90;;;;;;5054680;28;20406;-56
2022/10/14 03:15:09;;;;;;;81.38;41.30;;;11.80;99.90;;;;;;5051956;28;20073;-55
2022/10/14 03:17:35;;;;;;;71.85;37.10;;;11.70;99.90;;;;;;5060983;28;20037;-55
2022/10/14 03:20:01;;;;;;;77.90;39.30;;;11.70;99.90;;;;;;5069546;28;20040;-57
2022/10/14 03:22:26;;;;;;;68.15;36.00;;;11.70;99.90;;;;;;5056722;28;20498;-55
2022/10/14 03:24:52;;;;;;;63.40;33.80;;;11.70;99.90;;;;;;5050590;28;20045;-55
2022/10/14 03:27:17;;;;;;;70.13;36.13;;;11.70;99.90;;;;;;5060852;28;20408;-56
2022/10/14 03:29:43;;;;;;;66.45;36.25;;;11.80;99.90;;;;;;5053710;28;20073;-55
2022/10/14 03:32:08;;;;;;;66.07;37.57;;;11.80;99.90;;;;;;5059326;28;20053;-54
2022/10/14 03:34:34;;;;;;;61.77;33.90;;;11.80;99.90;;;;;;5068889;28;20650;-55
2022/10/14 03:36:59;;;;;;;59.43;34.17;;;11.80;99.90;;;;;;5056204;28;20413;-55
2022/10/14 03:39:25;;;;;;;57.30;34.00;;;11.80;99.90;;;;;;5067970;28;20115;-56
2022/10/14 03:41:51;;;;;;;56.77;33.43;;;11.80;99.90;;;;;;5066674;28;20279;-58
2022/10/14 03:44:16;;;;;;;57.53;33.17;;;11.80;99.90;;;;;;5068934;28;20052;-54
2022/10/14 03:46:42;;;;;;;56.17;33.20;;;11.80;99.90;;;;;;5067235;28;20041;-55
2022/10/14 03:49:07;;;;;;;63.23;33.50;;;11.80;99.90;;;;;;5056055;28;20318;-54
2022/10/14 03:51:33;;;;;;;54.65;33.88;;;11.80;99.90;;;;;;5068629;28;20040;-55
2022/10/14 03:53:58;;;;;;;55.80;34.20;;;11.90;99.90;;;;;;5053765;28;20034;-55
2022/10/14 03:56:24;;;;;;;73.68;37.80;;;11.90;99.90;;;;;;5064349;28;20033;-58
2022/10/14 03:58:50;;;;;;;63.90;34.70;;;11.90;99.90;;;;;;5050907;28;20384;-57
2022/10/14 04:01:15;;;;;;;61.83;34.73;;;11.90;99.90;;;;;;5064097;28;20481;-55
2022/10/14 04:03:41;;;;;;;62.83;35.20;;;11.90;99.90;;;;;;5066763;28;20109;-55
2022/10/14 04:06:07;;;;;;;59.90;32.83;;;11.80;99.90;;;;;;5064262;28;20490;-56
2022/10/14 04:08:32;;;;;;;60.22;35.45;;;11.80;99.90;;;;;;5065702;28;20067;-57
2022/10/14 04:10:58;;;;;;;55.90;34.97;;;11.90;99.90;;;;;;5060153;28;20116;-54
2022/10/14 04:13:23;;;;;;;61.50;32.03;;;11.90;99.90;;;;;;5063165;28;20040;-55
2022/10/14 04:15:49;;;;;;;56.05;34.45;;;11.90;99.90;;;;;;5055688;28;20628;-57
2022/10/14 04:18:15;;;;;;;60.63;32.70;;;11.80;99.90;;;;;;5057227;28;20543;-55
2022/10/14 04:20:40;;;;;;;54.88;32.30;;;11.90;99.90;;;;;;5049879;28;20449;-54
2022/10/14 04:23:06;;;;;;;51.42;30.27;;;11.90;99.90;;;;;;5054409;28;20365;-55
2022/10/14 04:25:32;;;;;;;55.03;31.85;;;11.90;99.90;;;;;;5064130;28;20044;-57
2022/10/14 04:27:57;;;;;;;54.22;29.75;;;11.90;99.90;;;;;;5059136;28;20502;-57
2022/10/14 04:30:23;;;;;;;52.73;30.23;;;11.90;99.90;;;;;;5052480;28;20521;-55
2022/10/14 04:32:48;;;;;;;49.37;31.10;;;11.90;99.90;;;;;;5062278;28;20552;-57
2022/10/14 04:35:14;;;;;;;48.77;29.27;;;11.90;99.90;;;;;;5060163;28;20440;-55
2022/10/14 04:37:40;;;;;;;55.00;29.52;;;11.90;99.90;;;;;;5065510;28;20791;-57
2022/10/14 04:40:05;;;;;;;47.57;29.57;;;11.90;99.90;;;;;;5049847;28;20405;-54
2022/10/14 04:42:31;;;;;;;44.30;28.75;;;11.90;99.90;;;;;;5049907;28;20032;-56
2022/10/14 04:44:57;;;;;;;46.58;27.83;;;11.90;99.90;;;;;;5067836;28;20051;-55
2022/10/14 04:47:22;;;;;;;44.95;25.17;;;11.90;99.90;;;;;;5068114;28;20054;-57
2022/10/14 04:49:48;;;;;;;42.23;26.17;;;11.90;99.90;;;;;;5052271;28;20045;-56
2022/10/14 04:52:13;;;;;;;52.37;26.40;;;11.80;99.90;;;;;;5065722;28;20044;-54
2022/10/14 04:54:39;;;;;;;48.17;26.93;;;11.80;99.90;;;;;;5060869;28;20279;-54
2022/10/14 04:57:04;;;;;;;44.40;25.87;;;11.80;99.90;;;;;;5055964;28;20351;-56
2022/10/14 04:59:30;;;;;;;43.87;23.70;;;11.80;99.90;;;;;;5062913;28;20032;-54
2022/10/14 05:01:55;;;;;;;42.17;24.07;;;11.80;99.90;;;;;;5066704;28;20798;-57
2022/10/14 05:04:21;;;;;;;44.43;24.13;;;11.80;99.90;;;;;;5060447;28;20053;-57
2022/10/14 05:06:47;;;;;;;43.13;24.85;;;11.70;99.90;;;;;;5069107;28;20283;-54
2022/10/14 05:09:12;;;;;;;50.83;25.50;;;11.70;99.90;;;;;;5066049;28;20090;-57
2022/10/14 05:11:38;;;;;;;44.50;25.17;;;11.60;99.90;;;;;;5056256;28;20378;-55
2022/10/14 05:14:03;;;;;;;40.63;22.03;;;11.60;99.90;;;;;;5059062;28;20041;-54
2022/10/14 05:16:29;;;;;;;40.63;21.98;;;11.60;99.90;;;;;;5057028;28;20290;-57
2022/10/14 05:18:54;;;;;;;37.67;21.97;;;11.50;99.90;;;;;;5054955;28;20159;-56
2022/10/14 05:21:20;;;;;;;41.67;21.70;;;11.50;99.90;;;;;;5069134;28;20282;-55
2022/10/14 05:23:46;;;;;;;36.15;21.92;;;11.40;99.90;;;;;;5054479;28;20040;-55
2022/10/14 05:26:11;;;;;;;37.80;22.00;;;11.30;99.90;;;;;;5051474;28;20033;-57
2022/10/14 05:28:37;;;;;;;36.57;19.90;;;11.30;99.90;;;;;;5068598;28;20111;-56
2022/10/14 05:31:03;;;;;;;37.33;21.15;;;11.20;99.90;;;;;;5056963;28;20155;-54
2022/10/14 05:33:29;;;;;;;37.38;22.15;;;11.20;99.90;;;;;;5064571;28;20487;-56
2022/10/14 05:35:55;;;;;;;37.05;20.83;;;11.10;99.90;;;;;;5070442;28;20048;-53
2022/10/14 05:38:20;;;;;;;32.50;20.37;;;11.10;99.90;;;;;;5073156;28;20433;-54
2022/10/14 05:40:56;;;;;;;42.83;22.47;;;11.00;99.90;;;;;;5061794;28;20494;-54
2022/10/14 05:43:25;;;;;;;34.70;21.42;;;11.00;99.90;;;;;;5053751;28;20037;-54
2022/10/14 05:45:51;;;;;;;48.00;22.38;;;11.00;99.90;;;;;;5071156;28;20056;-54
2022/10/14 05:48:17;;;;;;;43.87;20.87;;;11.00;99.90;;;;;;5072352;28;20059;-55
2022/10/14 05:50:43;;;;;;;30.02;17.73;;;10.90;99.90;;;;;;5072494;28;20082;-55
2022/10/14 05:53:10;;;;;;;38.10;19.77;;;10.80;99.90;;;;;;5072307;28;20477;-54
2022/10/14 05:55:36;;;;;;;40.10;21.65;;;10.70;99.90;;;;;;5057158;28;20461;-54
2022/10/14 05:58:01;;;;;;;40.00;23.30;;;10.70;99.90;;;;;;5058937;28;20036;-56
2022/10/14 06:00:27;;;;;;;35.03;19.50;;;10.70;99.90;;;;;;5071877;28;20393;-54
2022/10/14 06:02:52;;;;;;;37.70;21.83;;;10.70;99.90;;;;;;5071533;28;20452;-57
2022/10/14 06:05:18;;;;;;;36.53;20.77;;;10.70;99.90;;;;;;5070805;28;20079;-56
2022/10/14 06:07:43;;;;;;;38.78;21.00;;;10.70;99.90;;;;;;5072305;28;20213;-54
2022/10/14 06:10:12;;;;;;;42.63;23.97;;;10.70;99.90;;;;;;5072412;28;20409;-55
2022/10/14 06:12:38;;;;;;;43.17;23.45;;;10.70;99.90;;;;;;5057688;28;20041;-57
2022/10/14 06:15:04;;;;;;;40.88;24.00;;;10.70;99.90;;;;;;5062136;28;20040;-55
2022/10/14 06:17:29;;;;;;;43.17;23.48;;;10.80;99.90;;;;;;5051598;28;20077;-54
2022/10/14 06:19:55;;;;;;;41.30;22.97;;;10.80;99.90;;;;;;5051864;28;20047;-55
2022/10/14 06:22:20;;;;;;;47.60;25.57;;;10.80;99.90;;;;;;5057371;28;20032;-58
2022/10/14 06:24:46;;;;;;;51.25;28.08;;;10.80;99.90;;;;;;5069899;28;20553;-56
2022/10/14 06:27:11;;;;;;;44.33;24.47;;;10.90;99.90;;;;;;5071631;28;20478;-55
2022/10/14 06:29:37;;;;;;;56.03;27.60;;;10.90;99.90;;;;;;5072083;28;20046;-58
2022/10/14 06:32:04;;;;;;;53.35;26.27;;;11.00;99.90;;;;;;5071396;28;20162;-56
2022/10/14 06:34:30;;;;;;;50.47;26.98;;;11.10;99.90;;;;;;5071366;28;20036;-54
2022/10/14 06:36:55;;;;;;;49.50;26.50;;;11.10;99.90;;;;;;5056062;28;20083;-55
2022/10/14 06:39:21;;;;;;;51.13;26.25;;;11.20;99.90;;;;;;5055138;28;20509;-56
2022/10/14 06:41:47;;;;;;;52.42;27.75;;;11.30;99.90;;;;;;5065185;28;20103;-55
2022/10/14 06:44:14;;;;;;;43.57;23.53;;;11.30;99.90;;;;;;5050952;28;20041;-52
2022/10/14 06:46:40;;;;;;;43.92;25.38;;;11.40;99.90;;;;;;5058216;28;20053;-55
2022/10/14 06:49:06;;;;;;;48.60;26.23;;;11.40;99.90;;;;;;5051607;28;20048;-54
2022/10/14 06:51:31;;;;;;;46.90;25.92;;;11.50;99.90;;;;;;5065946;28;20116;-55
2022/10/14 06:53:57;;;;;;;39.57;25.63;;;11.50;99.90;;;;;;5070420;28;20040;-53
2022/10/14 06:56:22;;;;;;;47.57;26.50;;;11.50;99.90;;;;;;5058078;28;20111;-53
2022/10/14 06:58:55;;;;;;;48.10;27.65;;;11.60;99.90;;;;;;5070873;28;20287;-54
2022/10/14 07:01:22;;;;;;;49.60;26.55;;;11.70;99.90;;;;;;5056637;28;20045;-53
2022/10/14 07:03:47;;;;;;;;;;;11.70;99.90;;;;;;5057733;28;20041;-57
2022/10/14 07:06:13;;;;;;;48.65;27.05;;;11.80;99.90;;;;;;5058731;28;20447;-54
2022/10/14 07:08:39;;;;;;;47.08;25.88;;;11.80;99.90;;;;;;5051262;28;20041;-53
2022/10/14 07:11:05;;;;;;;43.47;24.60;;;11.80;99.90;;;;;;5063759;28;20032;-53
2022/10/14 07:13:33;;;;;;;47.35;25.38;;;11.80;99.90;;;;;;5059471;28;20079;-53
2022/10/14 07:15:58;;;;;;;48.67;25.45;;;11.90;99.90;;;;;;5060255;28;20080;-56
2022/10/14 07:18:24;;;;;;;50.25;27.95;;;11.90;99.90;;;;;;5051028;28;20513;-58
2022/10/14 07:20:49;;;;;;;50.05;26.27;;;11.90;99.90;;;;;;5051592;28;20044;-56
2022/10/14 07:23:15;;;;;;;45.87;25.67;;;11.90;99.90;;;;;;5050545;28;20040;-54
2022/10/14 07:25:41;;;;;;;49.08;26.42;;;11.90;99.90;;;;;;5051367;28;20037;-56
2022/10/14 07:28:07;;;;;;;50.35;26.90;;;12.00;99.90;;;;;;5056054;28;20048;-57
2022/10/14 07:30:32;;;;;;;51.60;28.07;;;12.00;99.90;;;;;;5067826;28;20708;-54
2022/10/14 07:32:58;;;;;;;64.63;32.20;;;12.00;99.90;;;;;;5057496;28;20040;-56
2022/10/14 07:35:27;;;;;;;69.15;34.03;;;12.00;99.90;;;;;;5061679;28;20116;-57
2022/10/14 07:37:54;;;;;;;68.78;33.05;;;12.00;99.90;;;;;;5050900;28;20099;-56
2022/10/14 07:40:20;;;;;;;67.03;33.80;;;12.00;99.90;;;;;;5050200;28;20087;-58
2022/10/14 07:42:46;;;;;;;;;;;12.00;99.90;;;;;;5067526;28;20055;-55
2022/10/14 07:45:15;;;;;;;75.07;35.38;;;12.00;99.90;;;;;;5070073;28;20348;-56
2022/10/14 07:47:42;;;;;;;75.05;36.70;;;12.00;99.90;;;;;;5070577;28;20037;-57
2022/10/14 07:50:08;;;;;;;65.70;33.97;;;12.10;99.90;;;;;;5068512;28;20135;-57
2022/10/14 07:52:33;;;;;;;;;;;12.10;99.90;;;;;;5067951;28;20173;-57
2022/10/14 07:54:59;;;;;;;74.80;36.58;;;12.10;99.90;;;;;;5049717;28;19963;-57
2022/10/14 07:57:26;;;;;;;80.20;39.27;;;12.10;99.90;;;;;;5065632;28;20447;-56
2022/10/14 07:59:52;;;;;;;78.78;38.13;;;12.10;99.90;;;;;;5068465;28;20036;-57
2022/10/14 08:02:18;;;;;;;70.83;33.97;;;12.10;99.90;;;;;;5056942;28;20132;-57
2022/10/14 08:04:44;;;;;;;94.45;43.05;;;12.10;99.90;;;;;;5065229;28;20102;-55
2022/10/14 08:07:13;;;;;;;90.30;41.55;;;12.20;99.90;;;;;;5063339;28;20406;-59
2022/10/14 08:09:38;;;;;;;86.00;41.95;;;12.20;99.90;;;;;;5064579;28;20044;-59
2022/10/14 08:12:04;;;;;;;101.20;42.78;;;12.20;99.90;;;;;;5049822;28;20067;-59
2022/10/14 08:14:30;;;;;;;99.63;44.25;;;12.20;99.90;;;;;;5063209;28;20066;-57
2022/10/14 08:16:55;;;;;;;89.18;39.53;;;12.30;99.90;;;;;;5054130;28;20428;-57
2022/10/14 08:19:21;;;;;;;83.00;40.00;;;12.30;99.90;;;;;;5052981;28;20541;-58
2022/10/14 08:21:46;;;;;;;99.82;43.83;;;12.30;99.90;;;;;;5061226;28;20045;-58
2022/10/14 08:24:12;;;;;;;102.78;44.50;;;12.30;99.90;;;;;;5062125;28;20464;-58
2022/10/14 08:26:59;;;;;;;97.25;42.97;;;12.30;99.90;;;;;;5066006;28;20060;-58
2022/10/14 08:29:26;;;;;;;;;;;12.30;99.90;;;;;;5055052;28;20053;-57
2022/10/14 08:31:54;;;;;;;97.28;42.08;;;12.40;99.90;;;;;;5061129;28;20258;-56
2022/10/14 08:34:20;;;;;;;94.13;40.58;;;12.40;99.90;;;;;;5057359;28;20076;-54
2022/10/14 08:36:50;;;;;;;92.95;42.80;;;12.40;99.90;;;;;;5051957;28;20103;-56
2022/10/14 08:39:19;;;;;;;94.18;42.40;;;12.40;99.90;;;;;;5054309;28;20049;-53
2022/10/14 08:41:54;;;;;;;94.20;41.47;;;12.40;99.90;;;;;;5054914;28;20044;-56
2022/10/14 08:44:23;;;;;;;98.25;42.55;;;12.40;99.90;;;;;;5049934;28;20095;-54
2022/10/14 08:46:58;;;;;;;89.40;38.47;;;12.40;99.90;;;;;;5055409;28;20409;-57
2022/10/14 08:49:34;;;;;;;96.88;41.25;;;12.50;99.90;;;;;;5066277;28;20608;-54
2022/10/14 08:52:10;;;;;;;90.28;42.08;;;12.50;99.90;;;;;;5052127;28;20047;-57
2022/10/14 08:54:42;;;;;;;104.50;42.13;;;12.50;99.90;;;;;;5065287;28;20116;-55
2022/10/14 08:57:16;;;;;;;93.22;40.38;;;12.60;99.90;;;;;;5058923;28;20127;-57
2022/10/14 08:59:42;;;;;;;90.13;42.22;;;12.60;99.90;;;;;;5057757;28;20036;-57
2022/10/14 09:02:33;;;;;;;93.78;42.25;;;12.60;99.90;;;;;;5060681;28;20564;-55
2022/10/14 09:04:59;;;;;;;90.60;41.80;;;12.60;99.90;;;;;;5052649;28;20041;-57
2022/10/14 09:07:25;;;;;;;102.95;44.03;;;12.60;99.90;;;;;;5071675;28;20508;-55
2022/10/14 09:09:55;;;;;;;93.45;42.78;;;12.60;99.90;;;;;;5067410;28;20112;-56
2022/10/14 09:12:27;;;;;;;98.18;41.13;;;12.70;99.90;;;;;;5066660;28;20115;-53
2022/10/14 09:15:17;;;;;;;99.38;42.78;;;12.70;99.90;;;;;;5058532;28;20060;-54
2022/10/14 09:18:13;;;;;;;92.55;40.85;;;12.70;99.90;;;;;;5052236;28;20029;-54
2022/10/14 09:20:41;;;;;;;89.78;38.38;;;12.70;99.90;;;;;;5061889;28;20319;-54
2022/10/14 09:23:06;;;;;;;87.15;39.20;;;12.70;99.90;;;;;;5062647;28;20085;-55
2022/10/14 09:25:35;;;;;;;82.27;39.30;;;12.80;99.90;;;;;;5060352;28;20041;-54
2022/10/14 09:28:00;;;;;;;79.70;37.95;;;12.80;99.90;;;;;;5054885;28;20573;-55
2022/10/14 09:30:30;;;;;;;94.95;41.33;;;12.80;99.90;;;;;;5066473;28;20116;-56
2022/10/14 09:32:58;;;;;;;97.40;42.38;;;12.90;99.90;;;;;;5066090;28;20045;-57
2022/10/14 09:35:30;;;;;;;92.50;40.53;;;12.90;99.90;;;;;;5066664;28;20029;-57
2022/10/14 09:37:56;;;;;;;89.55;40.83;;;12.90;99.90;;;;;;5060557;28;20032;-55
2022/10/14 09:40:54;;;;;;;92.47;41.80;;;12.90;99.90;;;;;;5070966;28;20047;-54
2022/10/14 09:43:23;;;;;;;93.90;41.15;;;12.90;99.90;;;;;;5055914;28;20040;-55
2022/10/14 09:46:06;;;;;;;114.32;44.92;;;12.90;99.90;;;;;;5065823;28;20071;-54
2022/10/14 09:48:46;;;;;;;99.38;43.40;;;12.90;99.90;;;;;;5053221;28;20045;-56
2022/10/14 09:51:33;;;;;;;112.97;46.65;;;12.90;99.90;;;;;;5061243;28;20044;-56
2022/10/14 09:54:01;;;;;;;111.10;44.60;;;12.90;99.90;;;;;;5053475;28;20128;-54
2022/10/14 09:56:27;;;;;;;100.72;41.30;;;12.90;99.90;;;;;;5055109;28;20283;-55
2022/10/14 09:58:55;;;;;;;103.30;42.47;;;12.90;99.90;;;;;;5056993;28;20513;-54
2022/10/14 10:01:24;;;;;;;107.25;43.53;;;13.00;99.90;;;;;;5057055;28;20036;-57
2022/10/14 10:03:51;;;;;;;117.45;47.00;;;12.90;99.90;;;;;;5062553;28;20391;-56
2022/10/14 10:06:20;;;;;;;111.20;45.00;;;12.90;99.90;;;;;;5066234;28;20043;-55
2022/10/14 10:08:51;;;;;;;118.95;46.95;;;13.00;99.90;;;;;;5054213;28;20099;-56
2022/10/14 10:11:36;;;;;;;112.18;44.65;;;13.00;99.90;;;;;;5052317;28;20458;-55
2022/10/14 10:14:25;;;;;;;100.97;42.40;;;13.00;99.90;;;;;;5053673;28;20175;-53
2022/10/14 10:17:10;;;;;;;103.93;43.88;;;13.00;99.90;;;;;;5060043;28;20044;-54
2022/10/14 10:20:06;;;;;;;116.10;43.17;;;13.10;99.90;;;;;;5054508;28;20494;-54
2022/10/14 10:22:35;;;;;;;103.63;44.33;;;13.10;99.90;;;;;;5059135;28;20048;-57
2022/10/14 10:25:01;;;;;;;107.30;44.17;;;13.10;99.90;;;;;;5057814;28;20044;-54
2022/10/14 10:27:27;;;;;;;115.97;45.73;;;13.10;99.90;;;;;;5054137;28;20107;-57
2022/10/14 10:29:56;;;;;;;109.63;44.97;;;13.20;99.90;;;;;;5054932;28;20408;-54
2022/10/14 10:32:41;;;;;;;102.47;44.95;;;13.20;99.90;;;;;;5059791;28;20522;-56
2022/10/14 10:35:37;;;;;;;102.07;45.80;;;13.20;99.90;;;;;;5059992;28;20044;-55
2022/10/14 10:38:12;;;;;;;113.60;47.95;;;13.30;99.90;;;;;;5062268;28;20032;-55
2022/10/14 10:41:02;;;;;;;111.45;46.67;;;13.30;99.90;;;;;;5056329;28;20103;-56
2022/10/14 10:43:48;;;;;;;96.22;45.20;;;13.30;99.90;;;;;;5058955;28;20102;-57
2022/10/14 10:46:44;;;;;;;111.90;46.55;;;13.30;99.90;;;;;;5052117;28;20041;-56
2022/10/14 10:49:28;;;;;;;113.18;48.75;;;13.40;99.90;;;;;;5046434;28;20052;-55
2022/10/14 10:52:10;;;;;;;105.85;50.17;;;13.40;99.90;;;;;;5060575;28;20051;-55
2022/10/14 10:55:02;;;;;;;98.95;47.72;;;13.50;99.90;;;;;;5052049;28;20048;-58
2022/10/14 10:57:57;;;;;;;104.70;48.95;;;13.50;99.90;;;;;;5060746;28;20037;-54
2022/10/14 11:00:23;;;;;;;102.38;49.65;;;13.50;99.90;;;;;;5060464;28;20032;-54
2022/10/14 11:02:53;;;;;;;95.95;50.13;;;13.60;99.90;;;;;;5082641;28;20068;-54
2022/10/14 11:05:57;;;;;;;108.30;49.95;;;13.70;99.90;;;;;;5069833;28;20292;-56
2022/10/14 11:12:13;;;;;;;99.60;49.58;;;13.80;99.90;;;;;;5051528;28;21971;-57
2022/10/14 11:14:58;;;;;;;102.65;50.63;;;13.90;99.90;;;;;;5038038;28;20641;-56
2022/10/14 11:17:40;;;;;;;90.80;46.83;;;13.90;99.90;;;;;;5056849;28;20210;-57
2022/10/14 11:20:32;;;;;;;83.75;45.45;;;14.00;99.90;;;;;;5070680;28;20044;-54
2022/10/14 11:23:28;;;;;;;78.32;46.20;;;14.10;99.90;;;;;;5066316;28;20521;-57
2022/10/14 11:26:40;;;;;;;69.75;42.72;;;14.10;99.90;;;;;;5050494;28;20045;-55
2022/10/14 11:29:34;;;;;;;72.13;44.10;;;14.10;99.90;;;;;;5050941;28;20041;-55
2022/10/14 11:32:18;;;;;;;74.40;44.25;;;14.20;99.90;;;;;;5050604;28;20049;-54
2022/10/14 11:35:10;;;;;;;68.72;40.75;;;14.30;99.90;;;;;;5050431;28;20040;-57
2022/10/14 11:38:04;;;;;;;65.00;39.58;;;14.30;99.90;;;;;;5050786;28;20387;-55
2022/10/14 11:41:17;;;;;;;68.90;41.08;;;14.40;99.90;;;;;;5050593;28;20123;-58
2022/10/14 11:43:50;;;;;;;64.05;42.45;;;14.40;99.90;;;;;;5004502;28;20057;-53
2022/10/14 11:46:21;;;;;;;58.88;37.95;;;14.50;99.90;;;;;;5050456;28;20506;-58
2022/10/14 11:49:00;;;;;;;56.03;37.78;;;14.50;99.90;;;;;;5050342;28;20086;-56
2022/10/14 11:51:49;;;;;;;61.67;39.30;;;14.50;99.90;;;;;;5050816;28;20095;-57
2022/10/14 11:54:23;;;;;;;49.47;35.80;;;14.50;99.90;;;;;;5056454;28;20040;-57
2022/10/14 11:57:01;;;;;;;49.08;34.65;;;14.50;99.90;;;;;;5064146;28;20045;-57
2022/10/14 11:59:43;;;;;;;42.35;31.40;;;14.60;99.90;;;;;;5049753;28;20537;-55
2022/10/14 12:02:34;;;;;;;43.70;30.45;;;14.60;99.90;;;;;;5066764;28;20225;-56
2022/10/14 12:05:03;;;;;;;39.38;31.00;;;14.60;99.90;;;;;;5051940;28;20087;-55
2022/10/14 12:07:37;;;;;;;38.30;30.23;;;14.60;99.90;;;;;;5060711;28;20457;-53
2022/10/14 12:10:28;;;;;;;37.45;27.90;;;14.60;99.90;;;;;;5069886;28;20045;-57
2022/10/14 12:12:55;;;;;;;37.72;29.10;;;14.60;99.90;;;;;;5070099;28;20076;-57
2022/10/14 12:15:24;;;;;;;32.55;26.45;;;14.70;99.90;;;;;;5067452;28;20032;-54
2022/10/14 12:17:55;;;;;;;37.80;27.50;;;14.70;99.90;;;;;;5050161;28;20543;-54
2022/10/14 12:20:31;;;;;;;34.22;25.00;;;14.80;99.90;;;;;;5058008;28;20072;-56
2022/10/14 12:22:58;;;;;;;30.88;25.25;;;14.80;99.90;;;;;;5069473;28;20075;-55
2022/10/14 12:25:26;;;;;;;28.48;23.58;;;14.90;99.90;;;;;;5057273;28;20045;-55
2022/10/14 12:27:54;;;;;;;28.83;24.83;;;14.90;99.90;;;;;;5050136;28;20115;-55
2022/10/14 12:30:37;;;;;;;32.65;27.15;;;15.00;99.90;;;;;;5050003;28;20408;-56
2022/10/14 12:33:08;;;;;;;30.92;25.15;;;15.00;99.90;;;;;;5049381;28;20040;-58
2022/10/14 12:35:53;;;;;;;29.13;25.75;;;15.00;99.90;;;;;;5054457;28;20051;-55
2022/10/14 12:38:20;;;;;;;29.35;25.35;;;15.00;99.90;;;;;;5062842;28;20029;-56
2022/10/14 12:40:49;;;;;;;29.33;24.55;;;15.00;99.90;;;;;;5053806;28;20074;-57
2022/10/14 12:43:24;;;;;;;24.98;22.38;;;15.00;99.90;;;;;;5054495;28;20058;-55
2022/10/14 12:46:14;;;;;;;26.52;22.45;;;15.00;99.90;;;;;;5053469;28;20044;-58
2022/10/14 12:48:49;;;;;;;31.00;24.38;;;15.00;99.90;;;;;;5053886;28;20047;-57